createdAt,value
2019-03-04T11:19:25.190Z,46.94
2019-03-04T11:20:25.148Z,46.94
2019-03-04T11:21:25.136Z,47.34
2019-03-04T11:22:25.127Z,48.78
2019-03-04T11:23:25.120Z,49.69
2019-03-04T11:24:25.112Z,51.95
2019-03-04T11:25:25.097Z,53.80
2019-03-04T11:26:25.085Z,54.94
2019-03-04T11:27:25.076Z,56.98
2019-03-04T11:28:25.064Z,58.35
2019-03-04T11:29:25.075Z,59.37
2019-03-04T11:30:25.038Z,60.03
2019-03-04T11:31:25.029Z,61.15
2019-03-04T11:32:25.020Z,61.99
2019-03-04T11:33:25.009Z,62.40
2019-03-04T11:34:25.020Z,62.94
2019-03-04T11:35:24.998Z,63.24
2019-03-04T11:36:24.977Z,63.76
2019-03-04T11:37:24.966Z,64.40
2019-03-04T11:38:24.957Z,64.32
2019-03-04T11:39:24.954Z,64.84
2019-03-04T11:40:24.933Z,66.19
2019-03-04T11:41:24.920Z,67.41
2019-03-04T11:42:24.913Z,67.11
2019-03-04T11:43:24.903Z,67.21
2019-03-04T11:44:24.917Z,67.04
2019-03-04T11:45:24.881Z,67.14
2019-03-04T11:46:24.929Z,66.50
2019-03-04T11:47:24.858Z,66.50
2019-03-04T11:48:24.848Z,66.02
2019-03-04T11:49:24.864Z,66.30
2019-03-04T11:50:24.827Z,66.42
2019-03-04T11:51:24.822Z,65.31
2019-03-04T11:52:24.807Z,65.71
2019-03-04T11:53:24.796Z,65.10
2019-03-04T11:54:24.784Z,65.92
2019-03-04T11:55:24.782Z,66.56
2019-03-04T11:56:24.764Z,65.92
2019-03-04T11:57:24.766Z,64.93
2019-03-04T11:58:24.744Z,66.05
2019-03-04T11:59:24.729Z,65.95
2019-03-04T12:00:24.724Z,66.56
2019-03-04T12:01:24.707Z,66.15
2019-03-04T12:02:24.704Z,66.39
2019-03-04T12:03:24.695Z,66.59
2019-03-04T12:04:24.675Z,66.28
2019-03-04T12:05:24.669Z,65.67
2019-03-04T12:06:24.656Z,65.37
2019-03-04T12:07:24.640Z,65.88
2019-03-04T12:08:24.631Z,65.06
2019-03-04T12:09:24.621Z,66.08
2019-03-04T12:10:24.620Z,66.31
2019-03-04T12:11:24.601Z,66.62
2019-03-04T12:12:24.591Z,67.03
2019-03-04T12:13:24.578Z,66.93
2019-03-04T12:14:24.568Z,66.93
2019-03-04T12:15:24.566Z,66.93
2019-03-04T12:16:24.550Z,66.83
2019-03-04T12:17:24.534Z,66.42
2019-03-04T12:18:24.525Z,65.37
2019-03-04T12:19:24.510Z,64.86
2019-03-04T12:20:24.508Z,64.42
2019-03-04T12:21:24.493Z,64.83
2019-03-04T12:22:24.482Z,63.98
2019-03-04T12:23:24.469Z,64.08
2019-03-04T12:24:24.459Z,63.57
2019-03-04T12:25:24.454Z,61.83
2019-03-04T12:26:24.437Z,62.14
2019-03-04T12:27:24.426Z,62.35
2019-03-04T12:28:24.417Z,61.80
2019-03-04T12:29:24.409Z,61.16
2019-03-04T12:30:24.403Z,60.99
2019-03-04T12:31:24.385Z,60.69
2019-03-04T12:32:24.379Z,61.19
2019-03-04T12:33:24.360Z,60.69
2019-03-04T12:34:25.050Z,60.28
2019-03-04T12:35:24.347Z,61.43
2019-03-04T12:36:24.337Z,61.43
2019-03-04T12:37:24.315Z,61.32
2019-03-04T12:38:24.306Z,61.43
2019-03-04T12:39:24.298Z,60.82
2019-03-04T12:40:24.298Z,60.69
2019-03-04T12:41:24.273Z,60.17
2019-03-04T12:42:24.263Z,59.46
2019-03-04T12:43:24.251Z,59.36
2019-03-04T12:44:24.304Z,60.14
2019-03-04T12:45:33.694Z,60.25
2019-03-04T12:46:25.222Z,60.05
2019-03-04T12:47:24.207Z,60.12
2019-03-04T12:48:24.196Z,59.81
2019-03-04T12:49:24.191Z,59.41
2019-03-04T12:50:24.203Z,59.48
2019-03-04T12:51:24.172Z,59.38
2019-03-04T12:52:24.159Z,59.07
2019-03-04T12:53:24.148Z,59.25
2019-03-04T12:54:24.134Z,58.13
2019-03-04T12:55:24.171Z,58.10
2019-03-04T12:56:24.111Z,57.90
2019-03-04T12:57:24.105Z,57.18
2019-03-04T12:58:24.092Z,58.10
2019-03-04T12:59:24.094Z,57.97
2019-03-04T13:00:24.070Z,57.26
2019-03-04T13:01:24.070Z,56.49
2019-03-04T13:02:24.048Z,55.15
2019-03-04T13:03:24.042Z,54.44
2019-03-04T13:04:24.026Z,54.84
2019-03-04T13:05:24.013Z,53.55
2019-03-04T13:06:24.018Z,52.31
2019-03-04T13:07:23.991Z,52.08
2019-03-04T13:08:23.992Z,52.73
2019-03-04T13:09:23.972Z,53.47
2019-03-04T13:10:23.978Z,53.70
2019-03-04T13:11:23.965Z,54.61
2019-03-04T13:12:23.939Z,54.74
2019-03-04T13:13:23.927Z,55.35
2019-03-04T13:14:23.922Z,54.64
2019-03-04T13:15:23.930Z,54.24
2019-03-04T13:16:23.913Z,54.64
2019-03-04T13:17:23.885Z,53.85
2019-03-04T13:18:23.873Z,54.66
2019-03-04T13:19:23.870Z,53.96
2019-03-04T13:20:23.858Z,54.26
2019-03-04T13:21:23.862Z,53.65
2019-03-04T13:22:23.830Z,53.34
2019-03-04T13:23:23.831Z,53.63
2019-03-04T13:24:23.809Z,51.75
2019-03-04T13:25:23.802Z,50.59
2019-03-04T13:26:23.798Z,49.83
2019-03-04T13:27:24.188Z,48.99
2019-03-04T13:28:23.768Z,48.06
2019-03-04T13:29:23.759Z,47.88
2019-03-04T13:30:23.744Z,48.11
2019-03-04T13:31:23.744Z,48.41
2019-03-04T13:32:23.722Z,49.24
2019-03-04T13:33:23.713Z,47.34
2019-03-04T13:34:23.705Z,47.46
2019-03-04T13:35:24.733Z,49.08
2019-03-04T13:36:23.715Z,48.40
2019-03-04T13:37:23.681Z,48.71
2019-03-04T13:38:23.659Z,49.03
2019-03-04T13:39:23.649Z,49.13
2019-03-04T13:40:23.645Z,48.42
2019-03-04T13:41:23.629Z,49.64
2019-03-04T13:42:23.626Z,48.83
2019-03-04T13:43:23.603Z,49.03
2019-03-04T13:44:23.599Z,48.72
2019-03-04T13:45:23.592Z,47.94
2019-03-04T13:46:23.582Z,49.16
2019-03-04T13:47:23.574Z,49.36
2019-03-04T13:48:23.548Z,48.34
2019-03-04T13:49:23.540Z,47.74
2019-03-04T13:50:23.530Z,49.36
2019-03-04T13:51:23.518Z,49.05
2019-03-04T13:52:23.528Z,49.84
2019-03-04T13:53:23.495Z,49.74
2019-03-04T13:54:23.485Z,49.95
2019-03-04T13:55:23.487Z,48.83
2019-03-04T13:56:23.468Z,49.87
2019-03-04T13:57:23.462Z,48.52
2019-03-04T13:58:23.442Z,47.74
2019-03-04T13:59:23.436Z,47.63
2019-03-04T14:00:23.423Z,47.22
2019-03-04T14:01:24.538Z,47.51
2019-03-04T14:02:23.421Z,46.92
2019-03-04T14:03:23.390Z,47.53
2019-03-04T14:04:23.379Z,48.75
2019-03-04T14:05:23.371Z,47.41
2019-03-04T14:06:23.359Z,46.11
2019-03-04T14:07:23.355Z,47.53
2019-03-04T14:08:23.338Z,47.51
2019-03-04T14:09:23.326Z,47.20
2019-03-04T14:10:23.314Z,46.49
2019-03-04T14:11:23.302Z,47.20
2019-03-04T14:12:23.300Z,45.98
2019-03-04T14:13:23.283Z,47.00
2019-03-04T14:14:23.269Z,46.70
2019-03-04T14:15:23.308Z,46.39
2019-03-04T14:16:23.247Z,45.70
2019-03-04T14:17:23.252Z,47.41
2019-03-04T14:18:23.228Z,47.20
2019-03-04T14:19:23.216Z,48.14
2019-03-04T14:20:23.205Z,47.20
2019-03-04T14:21:23.208Z,46.11
2019-03-04T14:22:23.208Z,46.19
2019-03-04T14:23:23.178Z,46.21
2019-03-04T14:24:23.175Z,46.01
2019-03-04T14:25:23.152Z,45.20
2019-03-04T14:26:23.180Z,45.60
2019-03-04T14:27:23.140Z,45.70
2019-03-04T14:28:23.118Z,46.11
2019-03-04T14:29:23.112Z,44.79
2019-03-04T14:30:23.098Z,45.40
2019-03-04T14:31:23.087Z,45.11
2019-03-04T14:32:23.456Z,45.20
2019-03-04T14:33:23.072Z,44.51
2019-03-04T14:34:23.057Z,45.01
2019-03-04T14:35:23.045Z,44.40
2019-03-04T14:36:23.041Z,44.10
2019-03-04T14:37:23.040Z,44.81
2019-03-04T14:38:23.010Z,44.40
2019-03-04T14:39:23.001Z,43.90
2019-03-04T14:40:22.993Z,44.51
2019-03-04T14:41:22.989Z,45.32
2019-03-04T14:42:22.979Z,44.71
2019-03-04T14:43:22.977Z,45.62
2019-03-04T14:44:22.950Z,44.81
2019-03-04T14:45:22.939Z,45.21
2019-03-04T14:46:22.924Z,45.72
2019-03-04T14:47:22.929Z,44.81
2019-03-04T14:48:22.903Z,45.93
2019-03-04T14:49:22.898Z,45.42
2019-03-04T14:50:22.881Z,44.81
2019-03-04T14:51:22.871Z,44.71
2019-03-04T14:52:22.883Z,44.91
2019-03-04T14:53:22.856Z,44.91
2019-03-04T14:54:22.845Z,45.21
2019-03-04T14:55:22.834Z,45.32
2019-03-04T14:56:22.913Z,44.51
2019-03-04T14:57:22.966Z,45.42
2019-03-04T14:58:22.795Z,45.93
2019-03-04T14:59:22.787Z,46.64
2019-03-04T15:00:22.778Z,46.23
2019-03-04T15:01:22.771Z,47.14
2019-03-04T15:02:23.467Z,45.42
2019-03-04T15:03:23.953Z,45.01
2019-03-04T15:04:22.730Z,46.33
2019-03-04T15:05:22.728Z,45.83
2019-03-04T15:06:22.711Z,44.81
2019-03-04T15:07:22.701Z,46.45
2019-03-04T15:08:22.696Z,44.81
2019-03-04T15:09:22.679Z,44.73
2019-03-04T15:10:22.667Z,45.64
2019-03-04T15:11:22.670Z,45.44
2019-03-04T15:12:22.649Z,45.24
2019-03-04T15:13:22.645Z,46.05
2019-03-04T15:14:22.629Z,45.24
2019-03-04T15:15:22.614Z,45.34
2019-03-04T15:16:22.607Z,44.53
2019-03-04T15:17:22.596Z,45.64
2019-03-04T15:18:22.598Z,44.63
2019-03-04T15:19:22.574Z,45.21
2019-03-04T15:20:22.613Z,44.53
2019-03-04T15:21:22.547Z,45.01
2019-03-04T15:22:22.537Z,44.40
2019-03-04T15:23:22.539Z,44.73
2019-03-04T15:24:22.533Z,45.24
2019-03-04T15:25:22.504Z,45.14
2019-03-04T15:26:22.493Z,45.03
2019-03-04T15:27:22.486Z,45.95
2019-03-04T15:28:22.482Z,45.34
2019-03-04T15:29:22.471Z,46.86
2019-03-04T15:30:22.453Z,46.36
2019-03-04T15:31:22.442Z,46.37
2019-03-04T15:32:22.697Z,45.95
2019-03-04T15:33:22.443Z,46.45
2019-03-04T15:34:22.415Z,47.58
2019-03-04T15:35:22.399Z,46.45
2019-03-04T15:36:22.388Z,47.06
2019-03-04T15:37:22.382Z,46.45
2019-03-04T15:38:22.382Z,46.25
2019-03-04T15:39:23.371Z,46.07
2019-03-04T15:40:22.347Z,46.25
2019-03-04T15:41:22.334Z,46.37
2019-03-04T15:42:22.325Z,46.36
2019-03-04T15:43:22.320Z,47.29
2019-03-04T15:44:22.308Z,46.17
2019-03-04T15:45:22.289Z,46.58
2019-03-04T15:46:22.288Z,47.17
2019-03-04T15:47:22.268Z,46.97
2019-03-04T15:48:22.266Z,47.29
2019-03-04T15:49:22.297Z,47.70
2019-03-04T15:50:22.236Z,46.68
2019-03-04T15:51:22.242Z,47.39
2019-03-04T15:52:22.215Z,47.09
2019-03-04T15:53:22.213Z,47.80
2019-03-04T15:54:22.194Z,47.80
2019-03-04T15:55:22.181Z,47.70
2019-03-04T15:56:22.175Z,47.70
2019-03-04T15:57:22.159Z,48.31
2019-03-04T15:58:22.159Z,47.39
2019-03-04T15:59:22.142Z,47.39
2019-03-04T16:00:22.130Z,47.11
2019-03-04T16:01:22.121Z,47.52
2019-03-04T16:02:22.106Z,47.60
2019-03-04T16:03:22.134Z,47.19
2019-03-04T16:04:22.089Z,48.43
2019-03-04T16:05:22.073Z,48.41
2019-03-04T16:06:22.061Z,49.15
2019-03-04T16:07:22.051Z,51.26
2019-03-04T16:08:22.041Z,53.11
2019-03-04T16:09:22.038Z,54.24
2019-03-04T16:10:22.020Z,55.76
2019-03-04T16:11:22.009Z,58.94
2019-03-04T16:12:22.018Z,60.60
2019-03-04T16:13:21.987Z,61.61
2019-03-04T16:14:21.990Z,62.05
2019-03-04T16:15:21.972Z,62.59
2019-03-04T16:16:21.956Z,62.70
2019-03-04T16:17:21.941Z,63.85
2019-03-04T16:18:21.936Z,64.46
2019-03-04T16:19:23.592Z,65.31
2019-03-04T16:20:21.912Z,66.33
2019-03-04T16:21:21.902Z,66.77
2019-03-04T16:22:21.894Z,66.97
2019-03-04T16:23:21.885Z,67.71
2019-03-04T16:24:21.877Z,67.82
2019-03-04T16:25:21.861Z,67.75
2019-03-04T16:26:21.848Z,68.05
2019-03-04T16:27:21.836Z,68.87
2019-03-04T16:28:21.826Z,69.59
2019-03-04T16:29:21.873Z,69.62
2019-03-04T16:30:21.807Z,68.29
2019-03-04T16:31:21.795Z,68.29
2019-03-04T16:32:21.799Z,69.31
2019-03-04T16:33:21.779Z,68.80
2019-03-04T16:34:21.768Z,69.42
2019-03-04T16:35:21.752Z,69.04
2019-03-04T16:36:21.795Z,68.93
2019-03-04T16:37:21.735Z,68.42
2019-03-04T16:38:21.722Z,68.84
2019-03-04T16:39:21.719Z,69.55
2019-03-04T16:40:21.697Z,69.45
2019-03-04T16:41:21.735Z,69.48
2019-03-04T16:42:21.676Z,69.27
2019-03-04T16:43:21.666Z,69.48
2019-03-04T16:44:21.660Z,69.27
2019-03-04T16:45:21.645Z,69.27
2019-03-04T16:46:21.632Z,69.51
2019-03-04T16:47:21.627Z,69.92
2019-03-04T16:48:21.611Z,69.31
2019-03-04T16:49:21.613Z,69.92
2019-03-04T16:50:21.589Z,70.06
2019-03-04T16:51:21.578Z,70.03
2019-03-04T16:52:21.565Z,69.44
2019-03-04T16:53:21.555Z,70.16
2019-03-04T16:54:21.551Z,70.06
2019-03-04T16:55:21.537Z,69.95
2019-03-04T16:56:21.526Z,70.16
2019-03-04T16:57:21.513Z,70.47
2019-03-04T16:58:21.509Z,69.65
2019-03-04T16:59:21.520Z,70.19
2019-03-04T17:00:21.484Z,70.06
2019-03-04T17:01:21.480Z,70.50
2019-03-04T17:02:21.457Z,69.37
2019-03-04T17:03:21.455Z,69.57
2019-03-04T17:04:21.449Z,69.37
2019-03-04T17:05:21.434Z,69.68
2019-03-04T17:06:21.418Z,70.50
2019-03-04T17:07:21.400Z,70.12
2019-03-04T17:08:21.391Z,69.98
2019-03-04T17:09:21.389Z,70.09
2019-03-04T17:10:21.374Z,70.02
2019-03-04T17:11:21.358Z,71.01
2019-03-04T17:12:21.346Z,70.84
2019-03-04T17:13:21.341Z,70.40
2019-03-04T17:14:21.366Z,70.12
2019-03-04T17:15:21.313Z,70.84
2019-03-04T17:16:21.303Z,70.84
2019-03-04T17:17:21.293Z,70.64
2019-03-04T17:18:21.283Z,70.64
2019-03-04T17:19:21.275Z,71.04
2019-03-04T17:20:21.276Z,71.25
2019-03-04T17:21:21.249Z,70.56
2019-03-04T17:22:21.238Z,71.28
2019-03-04T17:23:21.230Z,71.80
2019-03-04T17:24:21.220Z,71.59
2019-03-04T17:25:21.219Z,72.10
2019-03-04T17:26:21.196Z,71.80
2019-03-04T17:27:21.185Z,71.59
2019-03-04T17:28:21.174Z,72.31
2019-03-04T17:29:21.167Z,72.10
2019-03-04T17:30:21.165Z,72.51
2019-03-04T17:31:21.146Z,72.41
2019-03-04T17:32:21.153Z,72.00
2019-03-04T17:33:21.122Z,72.44
2019-03-04T17:34:21.108Z,72.55
2019-03-04T17:35:21.106Z,72.51
2019-03-04T17:36:21.089Z,72.34
2019-03-04T17:37:21.082Z,72.31
2019-03-04T17:38:21.067Z,72.55
2019-03-04T17:39:21.058Z,72.14
2019-03-04T17:40:21.052Z,71.62
2019-03-04T17:41:21.033Z,71.83
2019-03-04T17:42:21.025Z,71.31
2019-03-04T17:43:21.028Z,71.62
2019-03-04T17:44:21.001Z,71.52
2019-03-04T17:45:20.999Z,71.72
2019-03-04T17:46:20.980Z,71.11
2019-03-04T17:47:20.971Z,71.31
2019-03-04T17:48:20.966Z,71.25
2019-03-04T17:49:20.951Z,70.63
2019-03-04T17:50:20.953Z,70.32
2019-03-04T17:51:20.928Z,70.53
2019-03-04T17:52:20.917Z,70.42
2019-03-04T17:53:20.908Z,70.73
2019-03-04T17:54:20.897Z,70.12
2019-03-04T17:55:20.900Z,69.70
2019-03-04T17:56:20.877Z,69.91
2019-03-04T17:57:20.865Z,69.81
2019-03-04T17:58:20.854Z,69.81
2019-03-04T17:59:20.843Z,70.32
2019-03-04T18:00:20.872Z,69.70
2019-03-04T18:01:20.825Z,70.01
2019-03-04T18:02:20.835Z,70.01
2019-03-04T18:03:20.803Z,69.60
2019-03-04T18:04:20.790Z,69.70
2019-03-04T18:05:20.795Z,69.81
2019-03-04T18:06:20.767Z,69.91
2019-03-04T18:07:20.757Z,69.40
2019-03-04T18:08:20.749Z,69.50
2019-03-04T18:09:20.738Z,69.91
2019-03-04T18:10:20.738Z,69.32
2019-03-04T18:11:20.727Z,69.32
2019-03-04T18:12:20.704Z,69.23
2019-03-04T18:13:20.696Z,69.84
2019-03-04T18:14:20.681Z,69.64
2019-03-04T18:15:20.680Z,68.81
2019-03-04T18:16:20.660Z,68.71
2019-03-04T18:17:20.761Z,69.23
2019-03-04T18:18:20.640Z,68.74
2019-03-04T18:19:20.635Z,68.71
2019-03-04T18:20:20.646Z,68.19
2019-03-04T18:21:20.607Z,67.99
2019-03-04T18:22:20.595Z,68.10
2019-03-04T18:23:20.587Z,68.51
2019-03-04T18:24:20.574Z,67.99
2019-03-04T18:25:20.563Z,67.99
2019-03-04T18:26:20.561Z,67.99
2019-03-04T18:27:20.542Z,68.61
2019-03-04T18:28:20.531Z,68.19
2019-03-04T18:29:20.520Z,68.61
2019-03-04T18:30:20.512Z,68.10
2019-03-04T18:31:20.510Z,68.54
2019-03-04T18:32:20.494Z,67.79
2019-03-04T18:33:20.475Z,67.71
2019-03-04T18:34:20.465Z,67.68
2019-03-04T18:35:20.454Z,68.02
2019-03-04T18:36:20.454Z,67.89
2019-03-04T18:37:20.433Z,68.43
2019-03-04T18:38:20.422Z,68.30
2019-03-04T18:39:20.412Z,67.82
2019-03-04T18:40:20.401Z,66.96
2019-03-04T18:41:20.401Z,67.71
2019-03-04T18:42:20.378Z,67.71
2019-03-04T18:43:20.370Z,67.71
2019-03-04T18:44:20.367Z,67.71
2019-03-04T18:45:20.346Z,67.30
2019-03-04T18:46:20.354Z,67.41
2019-03-04T18:47:20.329Z,67.61
2019-03-04T18:48:20.322Z,68.02
2019-03-04T18:49:20.370Z,67.71
2019-03-04T18:50:20.305Z,67.30
2019-03-04T18:51:20.302Z,67.00
2019-03-04T18:52:20.282Z,67.41
2019-03-04T18:53:20.272Z,67.41
2019-03-04T18:54:20.252Z,67.41
2019-03-04T18:55:20.265Z,67.61
2019-03-04T18:56:22.214Z,67.30
2019-03-04T18:57:20.226Z,67.10
2019-03-04T18:58:20.209Z,67.00
2019-03-04T18:59:20.196Z,67.10
2019-03-04T19:00:20.193Z,67.41
2019-03-04T19:01:20.185Z,67.20
2019-03-04T19:02:20.164Z,67.00
2019-03-04T19:03:20.166Z,67.30
2019-03-04T19:04:20.147Z,67.07
2019-03-04T19:05:20.138Z,66.89
2019-03-04T19:06:20.139Z,67.00
2019-03-04T19:07:20.113Z,67.20
2019-03-04T19:08:20.106Z,66.86
2019-03-04T19:09:20.109Z,67.00
2019-03-04T19:10:20.085Z,66.79
2019-03-04T19:11:20.078Z,66.35
2019-03-04T19:12:20.059Z,66.69
2019-03-04T19:13:20.050Z,65.53
2019-03-04T19:14:20.042Z,65.45
2019-03-04T19:15:20.024Z,65.56
2019-03-04T19:16:20.026Z,65.42
2019-03-04T19:17:20.015Z,66.35
2019-03-04T19:18:19.992Z,65.94
2019-03-04T19:19:19.984Z,65.63
2019-03-04T19:20:19.971Z,65.53
2019-03-04T19:21:19.997Z,66.58
2019-03-04T19:22:20.444Z,65.63
2019-03-04T19:23:19.944Z,65.63
2019-03-04T19:24:19.933Z,65.53
2019-03-04T19:25:19.921Z,66.25
2019-03-04T19:26:19.908Z,65.83
2019-03-04T19:27:19.906Z,65.22
2019-03-04T19:28:19.886Z,65.53
2019-03-04T19:29:19.875Z,65.32
2019-03-04T19:30:19.869Z,65.53
2019-03-04T19:31:19.854Z,65.22
2019-03-04T19:32:19.851Z,64.81
2019-03-04T19:33:19.834Z,64.70
2019-03-04T19:34:19.821Z,65.12
2019-03-04T19:35:19.812Z,64.60
2019-03-04T19:36:19.801Z,65.12
2019-03-04T19:37:19.803Z,65.12
2019-03-04T19:38:19.836Z,64.29
2019-03-04T19:39:19.769Z,64.70
2019-03-04T19:40:19.758Z,64.91
2019-03-04T19:41:19.748Z,64.70
2019-03-04T19:42:19.746Z,64.81
2019-03-04T19:43:19.725Z,64.91
2019-03-04T19:44:19.718Z,64.91
2019-03-04T19:45:19.712Z,64.70
2019-03-04T19:46:19.697Z,64.70
2019-03-04T19:47:19.697Z,65.29
2019-03-04T19:48:19.673Z,65.19
2019-03-04T19:49:19.664Z,64.40
2019-03-04T19:50:19.654Z,64.29
2019-03-04T19:51:19.642Z,63.78
2019-03-04T19:52:19.639Z,64.29
2019-03-04T19:53:19.626Z,64.47
2019-03-04T19:54:19.610Z,64.26
2019-03-04T19:55:19.600Z,64.29
2019-03-04T19:56:19.590Z,64.16
2019-03-04T19:57:19.623Z,64.37
2019-03-04T19:58:19.566Z,64.47
2019-03-04T19:59:19.557Z,64.47
2019-03-04T20:00:19.547Z,64.26
2019-03-04T20:01:19.536Z,64.57
2019-03-04T20:02:19.526Z,64.26
2019-03-04T20:03:19.526Z,64.16
2019-03-04T20:04:19.503Z,64.37
2019-03-04T20:05:19.493Z,64.67
2019-03-04T20:06:19.481Z,63.68
2019-03-04T20:07:19.471Z,64.19
2019-03-04T20:08:19.470Z,64.19
2019-03-04T20:09:19.449Z,63.85
2019-03-04T20:10:19.442Z,64.57
2019-03-04T20:11:19.428Z,64.57
2019-03-04T20:12:19.417Z,63.44
2019-03-04T20:13:19.418Z,63.44
2019-03-04T20:14:19.394Z,63.54
2019-03-04T20:15:19.387Z,63.54
2019-03-04T20:16:19.396Z,62.73
2019-03-04T20:17:19.363Z,63.24
2019-03-04T20:18:19.362Z,63.44
2019-03-04T20:19:19.342Z,63.85
2019-03-04T20:20:19.333Z,62.73
2019-03-04T20:21:19.324Z,63.03
2019-03-04T20:22:19.318Z,62.83
2019-03-04T20:23:19.309Z,62.73
2019-03-04T20:24:19.289Z,62.93
2019-03-04T20:25:19.277Z,62.21
2019-03-04T20:26:19.279Z,62.21
2019-03-04T20:27:19.259Z,62.11
2019-03-04T20:28:19.259Z,62.11
2019-03-04T20:29:19.238Z,62.24
2019-03-04T20:30:19.224Z,61.70
2019-03-04T20:31:19.223Z,61.70
2019-03-04T20:32:19.202Z,61.60
2019-03-04T20:33:19.211Z,61.08
2019-03-04T20:34:19.181Z,61.39
2019-03-04T20:35:19.174Z,61.39
2019-03-04T20:36:19.161Z,61.49
2019-03-04T20:37:19.151Z,61.00
2019-03-04T20:38:19.154Z,62.01
2019-03-04T20:39:19.128Z,60.77
2019-03-04T20:40:19.120Z,61.39
2019-03-04T20:41:19.109Z,61.21
2019-03-04T20:42:19.098Z,61.21
2019-03-04T20:43:19.094Z,61.29
2019-03-04T20:44:19.074Z,61.39
2019-03-04T20:45:19.066Z,61.29
2019-03-04T20:46:19.056Z,61.29
2019-03-04T20:47:19.043Z,61.18
2019-03-04T20:48:19.041Z,60.98
2019-03-04T20:49:19.044Z,61.29
2019-03-04T20:50:19.010Z,61.39
2019-03-04T20:51:19.001Z,60.36
2019-03-04T20:52:18.991Z,59.64
2019-03-04T20:53:18.992Z,60.05
2019-03-04T20:54:18.973Z,60.26
2019-03-04T20:55:18.965Z,60.26
2019-03-04T20:56:18.948Z,60.08
2019-03-04T20:57:18.938Z,60.16
2019-03-04T20:58:18.935Z,60.36
2019-03-04T20:59:18.915Z,59.57
2019-03-04T21:00:18.915Z,59.95
2019-03-04T21:01:18.893Z,59.75
2019-03-04T21:02:18.886Z,59.95
2019-03-04T21:03:18.908Z,59.75
2019-03-04T21:04:18.862Z,59.98
2019-03-04T21:05:18.905Z,59.85
2019-03-04T21:06:18.844Z,58.72
2019-03-04T21:07:18.832Z,59.44
2019-03-04T21:08:18.821Z,60.05
2019-03-04T21:09:18.818Z,59.13
2019-03-04T21:10:18.798Z,59.03
2019-03-04T21:11:18.788Z,58.41
2019-03-04T21:12:18.778Z,58.34
2019-03-04T21:13:18.767Z,59.34
2019-03-04T21:14:18.769Z,59.34
2019-03-04T21:15:18.756Z,59.44
2019-03-04T21:16:18.733Z,59.54
2019-03-04T21:17:18.729Z,59.13
2019-03-04T21:18:18.713Z,59.47
2019-03-04T21:19:18.711Z,58.23
2019-03-04T21:20:18.698Z,58.62
2019-03-04T21:21:18.686Z,59.47
2019-03-04T21:22:18.670Z,58.51
2019-03-04T21:23:18.664Z,58.92
2019-03-04T21:24:18.663Z,59.44
2019-03-04T21:25:18.637Z,58.41
2019-03-04T21:26:18.629Z,58.64
2019-03-04T21:27:18.616Z,59.16
2019-03-04T21:28:18.604Z,59.06
2019-03-04T21:29:18.611Z,59.57
2019-03-04T21:30:18.584Z,59.67
2019-03-04T21:31:18.574Z,59.57
2019-03-04T21:32:18.566Z,59.57
2019-03-04T21:33:18.552Z,59.57
2019-03-04T21:34:18.550Z,59.16
2019-03-04T21:35:18.532Z,59.36
2019-03-04T21:36:18.523Z,59.57
2019-03-04T21:37:18.516Z,59.47
2019-03-04T21:38:18.498Z,59.98
2019-03-04T21:39:18.499Z,59.26
2019-03-04T21:40:18.482Z,59.59
2019-03-04T21:41:18.468Z,59.88
2019-03-04T21:42:18.467Z,58.98
2019-03-04T21:43:18.446Z,58.47
2019-03-04T21:44:18.444Z,59.70
2019-03-04T21:45:18.425Z,59.70
2019-03-04T21:46:18.415Z,59.91
2019-03-04T21:47:18.435Z,59.08
2019-03-04T21:48:18.401Z,59.08
2019-03-04T21:49:18.406Z,59.91
2019-03-04T21:50:18.370Z,60.11
2019-03-04T21:51:18.367Z,59.91
2019-03-04T21:52:20.615Z,60.21
2019-03-04T21:53:18.351Z,60.31
2019-03-04T21:54:18.365Z,59.59
2019-03-04T21:55:18.335Z,60.01
2019-03-04T21:56:18.309Z,59.80
2019-03-04T21:57:18.309Z,59.59
2019-03-04T21:58:18.285Z,59.52
2019-03-04T21:59:18.287Z,59.91
2019-03-04T22:00:18.262Z,59.83
2019-03-04T22:01:18.252Z,59.52
2019-03-04T22:02:18.240Z,60.03
2019-03-04T22:03:18.230Z,59.93
2019-03-04T22:04:18.229Z,59.83
2019-03-04T22:05:18.224Z,59.83
2019-03-04T22:06:18.200Z,60.03
2019-03-04T22:07:18.210Z,60.14
2019-03-04T22:08:18.183Z,60.24
2019-03-04T22:09:18.187Z,59.93
2019-03-04T22:10:18.155Z,60.03
2019-03-04T22:11:18.160Z,60.14
2019-03-04T22:12:18.151Z,59.93
2019-03-04T22:13:18.128Z,59.63
2019-03-04T22:14:18.121Z,59.83
2019-03-04T22:15:18.104Z,60.14
2019-03-04T22:16:18.100Z,60.03
2019-03-04T22:17:18.078Z,59.93
2019-03-04T22:18:18.070Z,59.83
2019-03-04T22:19:18.064Z,59.83
2019-03-04T22:20:18.072Z,60.35
2019-03-04T22:21:18.047Z,60.35
2019-03-04T22:22:18.033Z,60.14
2019-03-04T22:23:18.013Z,60.35
2019-03-04T22:24:18.013Z,59.83
2019-03-04T22:25:18.010Z,59.83
2019-03-04T22:26:17.993Z,60.03
2019-03-04T22:27:17.976Z,59.75
2019-03-04T22:28:17.960Z,59.83
2019-03-04T22:29:17.964Z,60.24
2019-03-04T22:30:17.961Z,60.17
2019-03-04T22:31:17.948Z,60.06
2019-03-04T22:32:17.938Z,59.65
2019-03-04T22:33:17.935Z,60.24
2019-03-04T22:34:17.905Z,59.52
2019-03-04T22:35:17.913Z,59.83
2019-03-04T22:36:17.874Z,59.75
2019-03-04T22:37:17.862Z,60.06
2019-03-04T22:38:17.853Z,59.45
2019-03-04T22:39:17.867Z,59.75
2019-03-04T22:40:17.831Z,59.65
2019-03-04T22:41:17.821Z,59.55
2019-03-04T22:42:17.810Z,59.96
2019-03-04T22:43:17.807Z,59.86
2019-03-04T22:44:17.817Z,59.45
2019-03-04T22:45:17.776Z,59.14
2019-03-04T22:46:17.767Z,59.96
2019-03-04T22:47:17.767Z,59.14
2019-03-04T22:48:17.745Z,59.65
2019-03-04T22:49:17.767Z,59.63
2019-03-04T22:50:17.801Z,59.45
2019-03-04T22:51:17.731Z,59.34
2019-03-04T22:52:17.721Z,59.45
2019-03-04T22:53:17.692Z,59.45
2019-03-04T22:54:17.693Z,59.86
2019-03-04T22:55:17.688Z,59.34
2019-03-04T22:56:17.661Z,59.86
2019-03-04T22:57:17.673Z,59.34
2019-03-04T22:58:28.249Z,59.14
2019-03-04T22:59:18.703Z,59.96
2019-03-04T23:00:17.617Z,60.17
2019-03-04T23:01:17.608Z,59.45
2019-03-04T23:02:17.616Z,59.45
2019-03-04T23:03:17.585Z,58.83
2019-03-04T23:04:17.578Z,58.42
2019-03-04T23:05:17.575Z,59.55
2019-03-04T23:06:17.553Z,59.34
2019-03-04T23:07:18.505Z,58.96
2019-03-04T23:08:17.531Z,58.52
2019-03-04T23:09:17.521Z,58.73
2019-03-04T23:10:17.535Z,58.42
2019-03-04T23:11:17.498Z,58.73
2019-03-04T23:12:17.489Z,59.45
2019-03-04T23:13:17.478Z,59.27
2019-03-04T23:14:17.467Z,58.86
2019-03-04T23:15:17.466Z,59.17
2019-03-04T23:16:17.446Z,59.06
2019-03-04T23:17:17.441Z,58.14
2019-03-04T23:18:17.425Z,57.93
2019-03-04T23:19:17.420Z,58.03
2019-03-04T23:20:17.413Z,59.17
2019-03-04T23:21:17.393Z,59.37
2019-03-04T23:22:17.382Z,59.47
2019-03-04T23:23:17.371Z,58.14
2019-03-04T23:24:17.359Z,57.93
2019-03-04T23:25:17.365Z,58.03
2019-03-04T23:26:17.349Z,59.37
2019-03-04T23:27:17.327Z,58.03
2019-03-04T23:28:17.321Z,59.47
2019-03-04T23:29:17.307Z,58.34
2019-03-04T23:30:17.307Z,58.45
2019-03-04T23:31:17.286Z,59.99
2019-03-04T23:32:17.276Z,60.09
2019-03-04T23:33:17.267Z,59.99
2019-03-04T23:34:17.253Z,60.02
2019-03-04T23:35:17.257Z,59.06
2019-03-04T23:36:17.236Z,59.70
2019-03-04T23:37:17.223Z,59.89
2019-03-04T23:38:17.210Z,60.09
2019-03-04T23:39:17.200Z,60.12
2019-03-04T23:40:17.198Z,60.22
2019-03-04T23:41:17.177Z,59.70
2019-03-04T23:42:17.171Z,60.09
2019-03-04T23:43:17.156Z,59.61
2019-03-04T23:44:17.146Z,59.89
2019-03-04T23:45:17.146Z,59.70
2019-03-04T23:46:17.126Z,60.02
2019-03-04T23:47:17.114Z,59.89
2019-03-04T23:48:17.114Z,60.12
2019-03-04T23:49:17.092Z,60.53
2019-03-04T23:50:17.090Z,59.61
2019-03-04T23:51:17.072Z,59.81
2019-03-04T23:52:17.062Z,59.99
2019-03-04T23:53:17.051Z,59.61
2019-03-04T23:54:17.045Z,60.02
2019-03-04T23:55:17.039Z,60.02
2019-03-04T23:56:17.019Z,59.61
2019-03-04T23:57:17.008Z,59.68
2019-03-04T23:58:16.996Z,60.02
2019-03-04T23:59:16.986Z,60.74
